Pagina principale
METAR-TAF:

METAR-TAF

Aeroporti :

Aeroporto di Corfù-Giovanni Capodistria

Corfù, Grecia

latitudine: 39-37N, longitudine: 019-55E, altezza: 2 m

Osservazione

Il bollettino è stato emesso 34 minuti fa, alle 02:50 UTC
Vento calmo
Temperature 6°C
Umidità 93%
Pressione 1020 hPa
Visibilità 10 km o più
nessuna nube inferiore a 1500 m e nessun cumulonembo

METAR: LGKR 240250Z 00000KT CAVOK 06/05 Q1020 NOSIG

Ora: 05:24 (03:24 UTC)

Previsione

Il bollettino è stato emesso 4 ore e 24 minuti fa, alle 23:00 UTC
Previsione valida dal 24 alle 00 UTC al 24 alle 24 UTC
Vento 5 kt da direzioni variabili
Visibilità 10 km o più
Poco nuvoloso ad un'altezza di 2000 ft

TAF: LGKR 232300Z 2400/2424 VRB05KT 9999 FEW020

Osservazioni e previsioni meteorologiche di più di 4000 aeroporti (messaggi METAR e TAF).

Le stazioni disponibili sono rappresentate dai dischi gialli e rossi sulla carta.

Puntare il mouse per vedere il nome della stazione.

Clicca sopra per visualizzare le osservazioni e previsioni meteorologiche.

Per cambiare la mappa : fare clic sui pulsanti verdi con una croce nera per ingrandire, il pulsante verde con un trattino per diminuire, o sulla freccia verde per le mappe adiacenti.


METAR-TAF: